sensor_id;sensor_type;location;lat;lon;timestamp;P1;durP1;ratioP1;P2;durP2;ratioP2
23472;SDS011;11909;52.516;13.564;2022-10-22T00:01:50;22.33;;;16.73;;
23472;SDS011;11909;52.516;13.564;2022-10-22T00:04:16;21.25;;;16.75;;
23472;SDS011;11909;52.516;13.564;2022-10-22T00:06:44;24.95;;;18.02;;
23472;SDS011;11909;52.516;13.564;2022-10-22T00:09:11;29.13;;;21.00;;
23472;SDS011;11909;52.516;13.564;2022-10-22T00:11:38;26.90;;;20.15;;
23472;SDS011;11909;52.516;13.564;2022-10-22T00:14:05;27.67;;;20.15;;
23472;SDS011;11909;52.516;13.564;2022-10-22T00:16:31;27.65;;;19.63;;
23472;SDS011;11909;52.516;13.564;2022-10-22T00:18:58;24.30;;;19.40;;
23472;SDS011;11909;52.516;13.564;2022-10-22T00:21:24;26.83;;;19.27;;
23472;SDS011;11909;52.516;13.564;2022-10-22T00:23:54;23.85;;;18.58;;
23472;SDS011;11909;52.516;13.564;2022-10-22T00:26:21;27.35;;;19.45;;
23472;SDS011;11909;52.516;13.564;2022-10-22T00:28:48;24.42;;;18.08;;
23472;SDS011;11909;52.516;13.564;2022-10-22T00:31:14;25.15;;;18.33;;
23472;SDS011;11909;52.516;13.564;2022-10-22T00:33:40;22.92;;;17.65;;
23472;SDS011;11909;52.516;13.564;2022-10-22T00:36:07;25.00;;;18.80;;
23472;SDS011;11909;52.516;13.564;2022-10-22T00:38:34;23.60;;;17.75;;
23472;SDS011;11909;52.516;13.564;2022-10-22T00:41:01;25.35;;;18.55;;
23472;SDS011;11909;52.516;13.564;2022-10-22T00:43:28;25.85;;;18.95;;
23472;SDS011;11909;52.516;13.564;2022-10-22T00:45:54;26.30;;;18.25;;
23472;SDS011;11909;52.516;13.564;2022-10-22T00:48:22;25.60;;;19.35;;
23472;SDS011;11909;52.516;13.564;2022-10-22T00:50:51;27.60;;;20.33;;
23472;SDS011;11909;52.516;13.564;2022-10-22T00:53:21;26.08;;;19.88;;
23472;SDS011;11909;52.516;13.564;2022-10-22T00:55:51;25.73;;;19.77;;
23472;SDS011;11909;52.516;13.564;2022-10-22T00:58:22;27.23;;;20.60;;
23472;SDS011;11909;52.516;13.564;2022-10-22T01:00:51;28.92;;;21.38;;
23472;SDS011;11909;52.516;13.564;2022-10-22T01:03:17;30.05;;;21.60;;
23472;SDS011;11909;52.516;13.564;2022-10-22T01:05:45;31.40;;;20.55;;
23472;SDS011;11909;52.516;13.564;2022-10-22T01:08:24;24.52;;;18.42;;
23472;SDS011;11909;52.516;13.564;2022-10-22T01:11:01;27.92;;;19.27;;
23472;SDS011;11909;52.516;13.564;2022-10-22T01:13:41;25.73;;;17.87;;
23472;SDS011;11909;52.516;13.564;2022-10-22T01:16:18;24.55;;;19.17;;
23472;SDS011;11909;52.516;13.564;2022-10-22T01:18:54;24.70;;;18.30;;
23472;SDS011;11909;52.516;13.564;2022-10-22T01:21:30;22.70;;;16.98;;
23472;SDS011;11909;52.516;13.564;2022-10-22T01:26:36;26.83;;;17.92;;
23472;SDS011;11909;52.516;13.564;2022-10-22T01:29:17;29.50;;;18.35;;
23472;SDS011;11909;52.516;13.564;2022-10-22T01:31:48;22.67;;;16.83;;
23472;SDS011;11909;52.516;13.564;2022-10-22T01:34:20;23.48;;;16.90;;
23472;SDS011;11909;52.516;13.564;2022-10-22T01:36:49;26.83;;;18.02;;
23472;SDS011;11909;52.516;13.564;2022-10-22T01:39:17;26.42;;;18.33;;
23472;SDS011;11909;52.516;13.564;2022-10-22T01:41:45;31.27;;;19.17;;
23472;SDS011;11909;52.516;13.564;2022-10-22T01:44:26;26.67;;;18.25;;
23472;SDS011;11909;52.516;13.564;2022-10-22T01:46:56;24.10;;;17.40;;
23472;SDS011;11909;52.516;13.564;2022-10-22T01:49:32;29.13;;;19.30;;
23472;SDS011;11909;52.516;13.564;2022-10-22T01:52:09;25.23;;;18.15;;
23472;SDS011;11909;52.516;13.564;2022-10-22T01:54:48;25.33;;;17.92;;
23472;SDS011;11909;52.516;13.564;2022-10-22T01:57:21;21.08;;;16.40;;
23472;SDS011;11909;52.516;13.564;2022-10-22T01:59:58;26.05;;;16.85;;
23472;SDS011;11909;52.516;13.564;2022-10-22T02:02:32;22.70;;;16.38;;
23472;SDS011;11909;52.516;13.564;2022-10-22T02:05:02;28.38;;;17.50;;
23472;SDS011;11909;52.516;13.564;2022-10-22T02:07:35;23.98;;;15.90;;
23472;SDS011;11909;52.516;13.564;2022-10-22T02:10:05;26.25;;;16.70;;
23472;SDS011;11909;52.516;13.564;2022-10-22T02:12:34;25.42;;;17.15;;
23472;SDS011;11909;52.516;13.564;2022-10-22T02:15:04;24.10;;;16.92;;
23472;SDS011;11909;52.516;13.564;2022-10-22T02:17:31;26.23;;;17.40;;
23472;SDS011;11909;52.516;13.564;2022-10-22T02:20:02;21.60;;;16.27;;
23472;SDS011;11909;52.516;13.564;2022-10-22T02:22:31;22.87;;;16.63;;
23472;SDS011;11909;52.516;13.564;2022-10-22T02:25:00;21.25;;;15.30;;
23472;SDS011;11909;52.516;13.564;2022-10-22T02:27:28;19.60;;;14.63;;
23472;SDS011;11909;52.516;13.564;2022-10-22T02:29:59;21.95;;;15.85;;
23472;SDS011;11909;52.516;13.564;2022-10-22T02:32:29;20.20;;;14.10;;
23472;SDS011;11909;52.516;13.564;2022-10-22T02:34:58;28.10;;;17.98;;
23472;SDS011;11909;52.516;13.564;2022-10-22T02:37:25;19.17;;;14.88;;
23472;SDS011;11909;52.516;13.564;2022-10-22T02:39:53;23.00;;;16.20;;
23472;SDS011;11909;52.516;13.564;2022-10-22T02:42:20;19.90;;;15.25;;
23472;SDS011;11909;52.516;13.564;2022-10-22T02:44:48;21.20;;;15.05;;
23472;SDS011;11909;52.516;13.564;2022-10-22T02:47:14;20.80;;;15.73;;
23472;SDS011;11909;52.516;13.564;2022-10-22T02:49:42;25.35;;;17.20;;
23472;SDS011;11909;52.516;13.564;2022-10-22T02:52:09;24.85;;;16.27;;
23472;SDS011;11909;52.516;13.564;2022-10-22T02:54:35;28.23;;;18.55;;
23472;SDS011;11909;52.516;13.564;2022-10-22T02:57:02;22.27;;;16.23;;
23472;SDS011;11909;52.516;13.564;2022-10-22T02:59:28;25.90;;;17.15;;
23472;SDS011;11909;52.516;13.564;2022-10-22T03:01:55;19.55;;;15.05;;
23472;SDS011;11909;52.516;13.564;2022-10-22T03:04:21;24.13;;;16.58;;
23472;SDS011;11909;52.516;13.564;2022-10-22T03:06:49;22.83;;;15.32;;
23472;SDS011;11909;52.516;13.564;2022-10-22T03:09:15;19.80;;;15.30;;
23472;SDS011;11909;52.516;13.564;2022-10-22T03:11:42;22.52;;;15.80;;
23472;SDS011;11909;52.516;13.564;2022-10-22T03:14:08;21.83;;;15.52;;
23472;SDS011;11909;52.516;13.564;2022-10-22T03:16:35;20.08;;;14.82;;
23472;SDS011;11909;52.516;13.564;2022-10-22T03:19:01;17.52;;;13.80;;
23472;SDS011;11909;52.516;13.564;2022-10-22T03:21:29;16.10;;;13.23;;
23472;SDS011;11909;52.516;13.564;2022-10-22T03:24:01;23.00;;;13.60;;
23472;SDS011;11909;52.516;13.564;2022-10-22T03:26:30;15.93;;;11.57;;
23472;SDS011;11909;52.516;13.564;2022-10-22T03:28:57;21.95;;;14.85;;
23472;SDS011;11909;52.516;13.564;2022-10-22T03:31:25;17.88;;;12.65;;
23472;SDS011;11909;52.516;13.564;2022-10-22T03:33:51;15.23;;;12.57;;
23472;SDS011;11909;52.516;13.564;2022-10-22T03:36:18;18.27;;;12.98;;
23472;SDS011;11909;52.516;13.564;2022-10-22T03:38:44;19.00;;;14.15;;
23472;SDS011;11909;52.516;13.564;2022-10-22T03:41:12;17.67;;;12.77;;
23472;SDS011;11909;52.516;13.564;2022-10-22T03:43:39;18.92;;;14.07;;
23472;SDS011;11909;52.516;13.564;2022-10-22T03:46:06;19.33;;;14.30;;
23472;SDS011;11909;52.516;13.564;2022-10-22T03:48:32;15.85;;;13.10;;
23472;SDS011;11909;52.516;13.564;2022-10-22T03:50:59;17.30;;;13.35;;
23472;SDS011;11909;52.516;13.564;2022-10-22T03:53:25;17.38;;;13.35;;
23472;SDS011;11909;52.516;13.564;2022-10-22T03:55:52;23.77;;;15.18;;
23472;SDS011;11909;52.516;13.564;2022-10-22T03:58:19;21.52;;;15.02;;
23472;SDS011;11909;52.516;13.564;2022-10-22T04:00:46;17.88;;;13.57;;
23472;SDS011;11909;52.516;13.564;2022-10-22T04:03:12;19.20;;;13.75;;
23472;SDS011;11909;52.516;13.564;2022-10-22T04:05:39;20.02;;;15.07;;
23472;SDS011;11909;52.516;13.564;2022-10-22T04:08:05;19.25;;;13.30;;
23472;SDS011;11909;52.516;13.564;2022-10-22T04:10:31;18.92;;;14.27;;
23472;SDS011;11909;52.516;13.564;2022-10-22T04:12:58;17.70;;;12.60;;
23472;SDS011;11909;52.516;13.564;2022-10-22T04:15:26;17.13;;;13.52;;
23472;SDS011;11909;52.516;13.564;2022-10-22T04:17:53;19.13;;;14.15;;
23472;SDS011;11909;52.516;13.564;2022-10-22T04:20:19;22.65;;;15.80;;
23472;SDS011;11909;52.516;13.564;2022-10-22T04:22:46;27.15;;;17.20;;
23472;SDS011;11909;52.516;13.564;2022-10-22T04:25:12;23.00;;;14.82;;
23472;SDS011;11909;52.516;13.564;2022-10-22T04:27:38;27.50;;;18.00;;
23472;SDS011;11909;52.516;13.564;2022-10-22T04:30:05;21.88;;;14.90;;
23472;SDS011;11909;52.516;13.564;2022-10-22T04:32:34;23.00;;;15.77;;
23472;SDS011;11909;52.516;13.564;2022-10-22T04:35:00;23.23;;;16.85;;
23472;SDS011;11909;52.516;13.564;2022-10-22T04:37:27;24.65;;;18.65;;
23472;SDS011;11909;52.516;13.564;2022-10-22T04:39:53;25.13;;;17.20;;
23472;SDS011;11909;52.516;13.564;2022-10-22T04:42:20;27.85;;;18.98;;
23472;SDS011;11909;52.516;13.564;2022-10-22T04:44:46;25.02;;;16.15;;
23472;SDS011;11909;52.516;13.564;2022-10-22T04:47:12;23.85;;;16.23;;
23472;SDS011;11909;52.516;13.564;2022-10-22T04:49:40;22.88;;;16.50;;
23472;SDS011;11909;52.516;13.564;2022-10-22T04:52:06;26.05;;;16.40;;
23472;SDS011;11909;52.516;13.564;2022-10-22T04:54:33;24.05;;;17.40;;
23472;SDS011;11909;52.516;13.564;2022-10-22T04:56:59;24.60;;;16.60;;
23472;SDS011;11909;52.516;13.564;2022-10-22T04:59:26;27.20;;;18.42;;
23472;SDS011;11909;52.516;13.564;2022-10-22T05:01:52;25.15;;;17.95;;
23472;SDS011;11909;52.516;13.564;2022-10-22T05:04:19;22.70;;;16.70;;
23472;SDS011;11909;52.516;13.564;2022-10-22T05:06:46;21.02;;;14.45;;
23472;SDS011;11909;52.516;13.564;2022-10-22T05:09:13;25.38;;;17.48;;
23472;SDS011;11909;52.516;13.564;2022-10-22T05:11:43;24.60;;;17.08;;
23472;SDS011;11909;52.516;13.564;2022-10-22T05:14:12;27.23;;;16.85;;
23472;SDS011;11909;52.516;13.564;2022-10-22T05:16:40;25.15;;;16.10;;
23472;SDS011;11909;52.516;13.564;2022-10-22T05:19:07;19.05;;;13.82;;
23472;SDS011;11909;52.516;13.564;2022-10-22T05:21:34;22.17;;;14.70;;
23472;SDS011;11909;52.516;13.564;2022-10-22T05:24:01;19.90;;;14.77;;
23472;SDS011;11909;52.516;13.564;2022-10-22T05:26:28;21.50;;;14.63;;
23472;SDS011;11909;52.516;13.564;2022-10-22T05:28:55;20.98;;;15.07;;
23472;SDS011;11909;52.516;13.564;2022-10-22T05:31:21;21.23;;;15.80;;
23472;SDS011;11909;52.516;13.564;2022-10-22T05:33:48;27.13;;;16.75;;
23472;SDS011;11909;52.516;13.564;2022-10-22T05:36:15;26.85;;;17.55;;
23472;SDS011;11909;52.516;13.564;2022-10-22T05:38:42;25.05;;;16.75;;
23472;SDS011;11909;52.516;13.564;2022-10-22T05:41:11;29.98;;;18.83;;
23472;SDS011;11909;52.516;13.564;2022-10-22T05:43:38;25.13;;;16.35;;
23472;SDS011;11909;52.516;13.564;2022-10-22T05:46:05;23.65;;;16.50;;
23472;SDS011;11909;52.516;13.564;2022-10-22T05:48:33;22.10;;;16.40;;
23472;SDS011;11909;52.516;13.564;2022-10-22T05:51:00;20.98;;;15.07;;
23472;SDS011;11909;52.516;13.564;2022-10-22T05:53:29;24.70;;;15.95;;
23472;SDS011;11909;52.516;13.564;2022-10-22T05:55:58;21.20;;;15.88;;
23472;SDS011;11909;52.516;13.564;2022-10-22T05:58:26;21.55;;;14.57;;
23472;SDS011;11909;52.516;13.564;2022-10-22T06:00:53;23.25;;;16.85;;
23472;SDS011;11909;52.516;13.564;2022-10-22T06:03:19;25.05;;;18.05;;
23472;SDS011;11909;52.516;13.564;2022-10-22T06:05:46;29.30;;;18.15;;
23472;SDS011;11909;52.516;13.564;2022-10-22T06:08:12;27.70;;;18.30;;
23472;SDS011;11909;52.516;13.564;2022-10-22T06:10:39;22.13;;;16.00;;
23472;SDS011;11909;52.516;13.564;2022-10-22T06:13:08;27.58;;;17.50;;
23472;SDS011;11909;52.516;13.564;2022-10-22T06:15:36;26.30;;;16.65;;
23472;SDS011;11909;52.516;13.564;2022-10-22T06:18:02;25.35;;;17.58;;
23472;SDS011;11909;52.516;13.564;2022-10-22T06:20:28;23.70;;;15.50;;
23472;SDS011;11909;52.516;13.564;2022-10-22T06:22:55;20.65;;;14.95;;
23472;SDS011;11909;52.516;13.564;2022-10-22T06:25:21;23.52;;;16.42;;
23472;SDS011;11909;52.516;13.564;2022-10-22T06:27:48;21.65;;;16.35;;
23472;SDS011;11909;52.516;13.564;2022-10-22T06:30:15;21.10;;;15.45;;
23472;SDS011;11909;52.516;13.564;2022-10-22T06:32:44;24.85;;;15.80;;
23472;SDS011;11909;52.516;13.564;2022-10-22T06:35:10;20.38;;;15.35;;
23472;SDS011;11909;52.516;13.564;2022-10-22T06:37:36;24.63;;;16.50;;
23472;SDS011;11909;52.516;13.564;2022-10-22T06:40:03;21.33;;;15.90;;
23472;SDS011;11909;52.516;13.564;2022-10-22T06:42:30;23.40;;;15.40;;
23472;SDS011;11909;52.516;13.564;2022-10-22T06:44:56;83.35;;;51.97;;
23472;SDS011;11909;52.516;13.564;2022-10-22T06:47:23;56.75;;;37.00;;
23472;SDS011;11909;52.516;13.564;2022-10-22T06:49:51;31.92;;;21.77;;
23472;SDS011;11909;52.516;13.564;2022-10-22T06:52:17;29.88;;;20.02;;
23472;SDS011;11909;52.516;13.564;2022-10-22T06:54:43;30.60;;;19.15;;
23472;SDS011;11909;52.516;13.564;2022-10-22T06:57:10;29.52;;;18.55;;
23472;SDS011;11909;52.516;13.564;2022-10-22T06:59:36;23.15;;;17.08;;
23472;SDS011;11909;52.516;13.564;2022-10-22T07:02:03;30.92;;;19.58;;
23472;SDS011;11909;52.516;13.564;2022-10-22T07:04:29;25.67;;;16.13;;
23472;SDS011;11909;52.516;13.564;2022-10-22T07:06:57;28.73;;;19.48;;
23472;SDS011;11909;52.516;13.564;2022-10-22T07:09:23;33.03;;;20.25;;
23472;SDS011;11909;52.516;13.564;2022-10-22T07:11:50;30.52;;;20.40;;
23472;SDS011;11909;52.516;13.564;2022-10-22T07:14:17;26.13;;;17.95;;
23472;SDS011;11909;52.516;13.564;2022-10-22T07:16:43;27.98;;;19.33;;
23472;SDS011;11909;52.516;13.564;2022-10-22T07:19:11;27.52;;;17.80;;
23472;SDS011;11909;52.516;13.564;2022-10-22T07:21:38;31.50;;;18.08;;
23472;SDS011;11909;52.516;13.564;2022-10-22T07:24:06;28.92;;;19.42;;
23472;SDS011;11909;52.516;13.564;2022-10-22T07:26:33;26.45;;;17.63;;
23472;SDS011;11909;52.516;13.564;2022-10-22T07:29:01;24.23;;;17.58;;
23472;SDS011;11909;52.516;13.564;2022-10-22T07:31:28;23.65;;;16.83;;
23472;SDS011;11909;52.516;13.564;2022-10-22T07:33:55;24.67;;;16.90;;
23472;SDS011;11909;52.516;13.564;2022-10-22T07:36:22;21.40;;;15.25;;
23472;SDS011;11909;52.516;13.564;2022-10-22T07:38:52;19.10;;;14.88;;
23472;SDS011;11909;52.516;13.564;2022-10-22T07:41:21;26.92;;;18.38;;
23472;SDS011;11909;52.516;13.564;2022-10-22T07:43:48;22.33;;;17.15;;
23472;SDS011;11909;52.516;13.564;2022-10-22T07:46:15;27.08;;;18.90;;
23472;SDS011;11909;52.516;13.564;2022-10-22T07:48:43;34.60;;;23.50;;
23472;SDS011;11909;52.516;13.564;2022-10-22T07:51:09;29.88;;;20.77;;
23472;SDS011;11909;52.516;13.564;2022-10-22T07:53:36;34.40;;;24.00;;
23472;SDS011;11909;52.516;13.564;2022-10-22T07:56:03;25.67;;;18.30;;
23472;SDS011;11909;52.516;13.564;2022-10-22T07:58:31;25.60;;;17.40;;
23472;SDS011;11909;52.516;13.564;2022-10-22T08:00:58;24.73;;;17.55;;
23472;SDS011;11909;52.516;13.564;2022-10-22T08:03:26;21.75;;;15.70;;
23472;SDS011;11909;52.516;13.564;2022-10-22T08:05:53;25.33;;;17.48;;
23472;SDS011;11909;52.516;13.564;2022-10-22T08:08:20;25.25;;;18.55;;
23472;SDS011;11909;52.516;13.564;2022-10-22T08:10:47;28.88;;;18.10;;
23472;SDS011;11909;52.516;13.564;2022-10-22T08:13:17;28.60;;;19.92;;
23472;SDS011;11909;52.516;13.564;2022-10-22T08:15:45;25.65;;;18.02;;
23472;SDS011;11909;52.516;13.564;2022-10-22T08:18:12;27.48;;;18.63;;
23472;SDS011;11909;52.516;13.564;2022-10-22T08:20:38;26.30;;;18.75;;
23472;SDS011;11909;52.516;13.564;2022-10-22T08:23:06;22.23;;;16.88;;
23472;SDS011;11909;52.516;13.564;2022-10-22T08:25:33;25.60;;;18.80;;
23472;SDS011;11909;52.516;13.564;2022-10-22T08:27:59;23.50;;;17.98;;
23472;SDS011;11909;52.516;13.564;2022-10-22T08:30:26;20.17;;;15.75;;
23472;SDS011;11909;52.516;13.564;2022-10-22T08:32:55;22.20;;;17.52;;
23472;SDS011;11909;52.516;13.564;2022-10-22T08:35:21;25.92;;;17.38;;
23472;SDS011;11909;52.516;13.564;2022-10-22T08:37:48;24.67;;;18.00;;
23472;SDS011;11909;52.516;13.564;2022-10-22T08:40:19;21.92;;;16.52;;
23472;SDS011;11909;52.516;13.564;2022-10-22T08:46:13;23.52;;;17.42;;
23472;SDS011;11909;52.516;13.564;2022-10-22T08:48:48;27.02;;;18.38;;
23472;SDS011;11909;52.516;13.564;2022-10-22T08:51:17;24.45;;;18.48;;
23472;SDS011;11909;52.516;13.564;2022-10-22T08:56:44;28.73;;;19.13;;
23472;SDS011;11909;52.516;13.564;2022-10-22T08:59:16;24.05;;;17.48;;
23472;SDS011;11909;52.516;13.564;2022-10-22T09:01:48;24.77;;;17.70;;
23472;SDS011;11909;52.516;13.564;2022-10-22T09:04:20;29.38;;;17.90;;
23472;SDS011;11909;52.516;13.564;2022-10-22T09:06:52;27.88;;;19.45;;
23472;SDS011;11909;52.516;13.564;2022-10-22T09:09:20;25.40;;;20.55;;
23472;SDS011;11909;52.516;13.564;2022-10-22T09:11:51;24.75;;;17.77;;
23472;SDS011;11909;52.516;13.564;2022-10-22T09:14:22;26.88;;;18.92;;
23472;SDS011;11909;52.516;13.564;2022-10-22T09:16:55;28.17;;;18.75;;
23472;SDS011;11909;52.516;13.564;2022-10-22T09:19:49;25.70;;;17.58;;
23472;SDS011;11909;52.516;13.564;2022-10-22T09:22:29;26.98;;;18.40;;
23472;SDS011;11909;52.516;13.564;2022-10-22T09:25:01;22.70;;;17.23;;
23472;SDS011;11909;52.516;13.564;2022-10-22T09:27:39;22.77;;;16.55;;
23472;SDS011;11909;52.516;13.564;2022-10-22T09:30:09;22.75;;;17.70;;
23472;SDS011;11909;52.516;13.564;2022-10-22T09:32:39;25.20;;;18.15;;
23472;SDS011;11909;52.516;13.564;2022-10-22T09:35:09;22.50;;;16.33;;
23472;SDS011;11909;52.516;13.564;2022-10-22T09:37:43;28.35;;;18.48;;
23472;SDS011;11909;52.516;13.564;2022-10-22T09:40:13;25.25;;;18.38;;
23472;SDS011;11909;52.516;13.564;2022-10-22T09:42:41;28.65;;;19.98;;
23472;SDS011;11909;52.516;13.564;2022-10-22T09:45:13;28.30;;;20.30;;
23472;SDS011;11909;52.516;13.564;2022-10-22T09:47:42;25.45;;;19.05;;
23472;SDS011;11909;52.516;13.564;2022-10-22T09:50:21;26.08;;;19.33;;
23472;SDS011;11909;52.516;13.564;2022-10-22T09:52:57;25.65;;;20.13;;
23472;SDS011;11909;52.516;13.564;2022-10-22T09:55:26;28.27;;;18.95;;
23472;SDS011;11909;52.516;13.564;2022-10-22T09:57:53;27.75;;;19.77;;
23472;SDS011;11909;52.516;13.564;2022-10-22T10:00:21;26.50;;;17.77;;
23472;SDS011;11909;52.516;13.564;2022-10-22T10:02:52;28.65;;;19.52;;
23472;SDS011;11909;52.516;13.564;2022-10-22T10:05:24;26.20;;;17.83;;
23472;SDS011;11909;52.516;13.564;2022-10-22T10:07:52;27.15;;;19.17;;
23472;SDS011;11909;52.516;13.564;2022-10-22T10:10:20;24.02;;;18.92;;
23472;SDS011;11909;52.516;13.564;2022-10-22T10:12:57;28.90;;;18.45;;
23472;SDS011;11909;52.516;13.564;2022-10-22T10:15:35;26.85;;;18.60;;
23472;SDS011;11909;52.516;13.564;2022-10-22T10:18:13;22.08;;;16.50;;
23472;SDS011;11909;52.516;13.564;2022-10-22T10:20:52;25.38;;;17.88;;
23472;SDS011;11909;52.516;13.564;2022-10-22T10:23:25;26.80;;;17.88;;
23472;SDS011;11909;52.516;13.564;2022-10-22T10:26:00;25.73;;;16.80;;
23472;SDS011;11909;52.516;13.564;2022-10-22T10:28:38;27.08;;;16.73;;
23472;SDS011;11909;52.516;13.564;2022-10-22T10:31:19;24.05;;;16.73;;
23472;SDS011;11909;52.516;13.564;2022-10-22T10:34:01;22.80;;;16.50;;
23472;SDS011;11909;52.516;13.564;2022-10-22T10:36:43;20.17;;;15.57;;
23472;SDS011;11909;52.516;13.564;2022-10-22T10:39:17;25.00;;;17.42;;
23472;SDS011;11909;52.516;13.564;2022-10-22T10:41:50;23.25;;;17.45;;
23472;SDS011;11909;52.516;13.564;2022-10-22T10:44:40;31.98;;;20.13;;
23472;SDS011;11909;52.516;13.564;2022-10-22T10:47:22;23.02;;;17.13;;
23472;SDS011;11909;52.516;13.564;2022-10-22T10:50:09;29.35;;;19.98;;
23472;SDS011;11909;52.516;13.564;2022-10-22T10:52:46;23.65;;;17.20;;
23472;SDS011;11909;52.516;13.564;2022-10-22T10:55:21;28.48;;;19.33;;
23472;SDS011;11909;52.516;13.564;2022-10-22T10:57:57;27.75;;;18.90;;
23472;SDS011;11909;52.516;13.564;2022-10-22T11:00:39;26.65;;;17.58;;
23472;SDS011;11909;52.516;13.564;2022-10-22T11:03:19;21.65;;;16.33;;
23472;SDS011;11909;52.516;13.564;2022-10-22T11:06:00;24.33;;;18.17;;
23472;SDS011;11909;52.516;13.564;2022-10-22T11:08:31;25.70;;;17.45;;
23472;SDS011;11909;52.516;13.564;2022-10-22T11:11:00;25.75;;;17.75;;
23472;SDS011;11909;52.516;13.564;2022-10-22T11:13:32;20.73;;;14.55;;
23472;SDS011;11909;52.516;13.564;2022-10-22T11:16:02;25.17;;;15.90;;
23472;SDS011;11909;52.516;13.564;2022-10-22T11:18:36;24.38;;;16.80;;
23472;SDS011;11909;52.516;13.564;2022-10-22T11:21:12;25.30;;;16.42;;
23472;SDS011;11909;52.516;13.564;2022-10-22T11:23:45;29.58;;;18.33;;
23472;SDS011;11909;52.516;13.564;2022-10-22T11:26:18;25.27;;;18.10;;
23472;SDS011;11909;52.516;13.564;2022-10-22T11:28:52;28.50;;;18.98;;
23472;SDS011;11909;52.516;13.564;2022-10-22T11:31:19;26.63;;;17.30;;
23472;SDS011;11909;52.516;13.564;2022-10-22T11:33:50;23.52;;;17.33;;
23472;SDS011;11909;52.516;13.564;2022-10-22T11:36:20;24.60;;;17.10;;
23472;SDS011;11909;52.516;13.564;2022-10-22T11:38:50;25.42;;;17.02;;
23472;SDS011;11909;52.516;13.564;2022-10-22T11:41:17;25.85;;;18.52;;
23472;SDS011;11909;52.516;13.564;2022-10-22T11:43:55;29.80;;;19.35;;
23472;SDS011;11909;52.516;13.564;2022-10-22T11:46:34;29.63;;;19.00;;
23472;SDS011;11909;52.516;13.564;2022-10-22T11:49:18;32.08;;;20.55;;
23472;SDS011;11909;52.516;13.564;2022-10-22T11:51:48;29.80;;;19.30;;
23472;SDS011;11909;52.516;13.564;2022-10-22T11:54:28;24.80;;;17.70;;
23472;SDS011;11909;52.516;13.564;2022-10-22T11:57:14;24.92;;;18.52;;
23472;SDS011;11909;52.516;13.564;2022-10-22T11:59:49;28.65;;;18.95;;
23472;SDS011;11909;52.516;13.564;2022-10-22T12:02:29;32.83;;;21.30;;
23472;SDS011;11909;52.516;13.564;2022-10-22T12:05:18;24.95;;;18.75;;
23472;SDS011;11909;52.516;13.564;2022-10-22T12:07:59;28.42;;;16.98;;
23472;SDS011;11909;52.516;13.564;2022-10-22T12:10:33;31.65;;;19.95;;
23472;SDS011;11909;52.516;13.564;2022-10-22T12:13:02;27.33;;;18.30;;
23472;SDS011;11909;52.516;13.564;2022-10-22T12:15:39;25.63;;;17.10;;
23472;SDS011;11909;52.516;13.564;2022-10-22T12:18:12;25.98;;;18.15;;
23472;SDS011;11909;52.516;13.564;2022-10-22T12:20:40;20.70;;;15.90;;
23472;SDS011;11909;52.516;13.564;2022-10-22T12:23:07;32.92;;;18.02;;
23472;SDS011;11909;52.516;13.564;2022-10-22T12:25:37;23.80;;;16.27;;
23472;SDS011;11909;52.516;13.564;2022-10-22T12:28:04;29.65;;;18.10;;
23472;SDS011;11909;52.516;13.564;2022-10-22T12:30:31;23.05;;;15.98;;
23472;SDS011;11909;52.516;13.564;2022-10-22T12:32:59;23.90;;;15.52;;
23472;SDS011;11909;52.516;13.564;2022-10-22T12:35:28;20.85;;;14.93;;
23472;SDS011;11909;52.516;13.564;2022-10-22T12:37:57;24.13;;;14.25;;
23472;SDS011;11909;52.516;13.564;2022-10-22T12:40:26;19.80;;;12.60;;
23472;SDS011;11909;52.516;13.564;2022-10-22T12:42:56;15.90;;;12.82;;
23472;SDS011;11909;52.516;13.564;2022-10-22T12:45:24;17.52;;;13.60;;
23472;SDS011;11909;52.516;13.564;2022-10-22T12:47:54;18.52;;;13.10;;
23472;SDS011;11909;52.516;13.564;2022-10-22T12:50:24;17.40;;;11.02;;
23472;SDS011;11909;52.516;13.564;2022-10-22T12:52:56;17.67;;;10.85;;
23472;SDS011;11909;52.516;13.564;2022-10-22T12:55:24;16.17;;;11.50;;
23472;SDS011;11909;52.516;13.564;2022-10-22T12:57:51;13.75;;;10.13;;
23472;SDS011;11909;52.516;13.564;2022-10-22T13:00:20;11.90;;;8.85;;
23472;SDS011;11909;52.516;13.564;2022-10-22T13:02:48;11.80;;;7.90;;
23472;SDS011;11909;52.516;13.564;2022-10-22T13:05:19;13.27;;;8.52;;
23472;SDS011;11909;52.516;13.564;2022-10-22T13:07:49;21.88;;;12.85;;
23472;SDS011;11909;52.516;13.564;2022-10-22T13:10:18;8.82;;;6.93;;
23472;SDS011;11909;52.516;13.564;2022-10-22T13:12:48;9.38;;;6.50;;
23472;SDS011;11909;52.516;13.564;2022-10-22T13:15:29;10.52;;;5.75;;
23472;SDS011;11909;52.516;13.564;2022-10-22T13:18:12;9.90;;;5.57;;
23472;SDS011;11909;52.516;13.564;2022-10-22T13:20:51;8.05;;;5.50;;
23472;SDS011;11909;52.516;13.564;2022-10-22T13:23:19;9.18;;;5.38;;
23472;SDS011;11909;52.516;13.564;2022-10-22T13:25:55;8.32;;;5.07;;
23472;SDS011;11909;52.516;13.564;2022-10-22T13:28:23;8.57;;;4.25;;
23472;SDS011;11909;52.516;13.564;2022-10-22T13:30:52;7.68;;;4.32;;
23472;SDS011;11909;52.516;13.564;2022-10-22T13:33:21;6.43;;;3.70;;
23472;SDS011;11909;52.516;13.564;2022-10-22T13:35:51;10.73;;;3.80;;
23472;SDS011;11909;52.516;13.564;2022-10-22T13:38:19;7.80;;;3.83;;
23472;SDS011;11909;52.516;13.564;2022-10-22T13:40:48;9.73;;;4.22;;
23472;SDS011;11909;52.516;13.564;2022-10-22T13:43:14;6.40;;;3.65;;
23472;SDS011;11909;52.516;13.564;2022-10-22T13:45:41;10.77;;;4.15;;
23472;SDS011;11909;52.516;13.564;2022-10-22T13:48:11;6.70;;;3.15;;
23472;SDS011;11909;52.516;13.564;2022-10-22T13:50:38;7.10;;;3.40;;
23472;SDS011;11909;52.516;13.564;2022-10-22T13:53:05;9.25;;;4.20;;
23472;SDS011;11909;52.516;13.564;2022-10-22T13:55:34;7.63;;;3.20;;
23472;SDS011;11909;52.516;13.564;2022-10-22T13:58:02;10.85;;;3.45;;
23472;SDS011;11909;52.516;13.564;2022-10-22T14:00:35;8.75;;;3.58;;
23472;SDS011;11909;52.516;13.564;2022-10-22T14:03:03;9.43;;;3.25;;
23472;SDS011;11909;52.516;13.564;2022-10-22T14:05:32;11.07;;;3.10;;
23472;SDS011;11909;52.516;13.564;2022-10-22T14:07:59;6.45;;;2.75;;
23472;SDS011;11909;52.516;13.564;2022-10-22T14:10:26;7.38;;;3.10;;
23472;SDS011;11909;52.516;13.564;2022-10-22T14:12:53;9.20;;;2.70;;
23472;SDS011;11909;52.516;13.564;2022-10-22T14:15:20;10.38;;;2.85;;
23472;SDS011;11909;52.516;13.564;2022-10-22T14:17:51;6.07;;;2.63;;
23472;SDS011;11909;52.516;13.564;2022-10-22T14:20:20;5.68;;;2.95;;
23472;SDS011;11909;52.516;13.564;2022-10-22T14:22:49;9.00;;;3.08;;
23472;SDS011;11909;52.516;13.564;2022-10-22T14:25:17;6.70;;;2.92;;
23472;SDS011;11909;52.516;13.564;2022-10-22T14:27:45;7.95;;;2.67;;
23472;SDS011;11909;52.516;13.564;2022-10-22T14:30:12;7.55;;;2.83;;
23472;SDS011;11909;52.516;13.564;2022-10-22T14:32:40;7.28;;;2.40;;
23472;SDS011;11909;52.516;13.564;2022-10-22T14:35:08;5.18;;;2.80;;